sensor_id;sensor_type;location;lat;lon;timestamp;P1;durP1;ratioP1;P2;durP2;ratioP2
77055;SDS011;67471;44.918;8.614;2023-02-28T00:01:59;11.65;;;6.05;;
77055;SDS011;67471;44.918;8.614;2023-02-28T00:05:03;11.10;;;6.55;;
77055;SDS011;67471;44.918;8.614;2023-02-28T00:08:07;9.82;;;6.15;;
77055;SDS011;67471;44.918;8.614;2023-02-28T00:11:12;9.95;;;6.40;;
77055;SDS011;67471;44.918;8.614;2023-02-28T00:14:17;9.35;;;6.28;;
77055;SDS011;67471;44.918;8.614;2023-02-28T00:17:21;9.27;;;6.22;;
77055;SDS011;67471;44.918;8.614;2023-02-28T00:20:24;11.50;;;6.70;;
77055;SDS011;67471;44.918;8.614;2023-02-28T00:23:28;10.63;;;7.32;;
77055;SDS011;67471;44.918;8.614;2023-02-28T00:26:32;11.35;;;7.15;;
77055;SDS011;67471;44.918;8.614;2023-02-28T00:29:36;10.82;;;6.85;;
77055;SDS011;67471;44.918;8.614;2023-02-28T00:32:40;9.48;;;6.28;;
77055;SDS011;67471;44.918;8.614;2023-02-28T00:35:44;11.25;;;6.85;;
77055;SDS011;67471;44.918;8.614;2023-02-28T00:38:49;12.65;;;7.90;;
77055;SDS011;67471;44.918;8.614;2023-02-28T00:41:53;13.00;;;7.75;;
77055;SDS011;67471;44.918;8.614;2023-02-28T00:44:57;13.10;;;7.80;;
77055;SDS011;67471;44.918;8.614;2023-02-28T00:48:01;15.18;;;7.93;;
77055;SDS011;67471;44.918;8.614;2023-02-28T00:51:04;10.63;;;7.53;;
77055;SDS011;67471;44.918;8.614;2023-02-28T00:54:09;11.35;;;6.93;;
77055;SDS011;67471;44.918;8.614;2023-02-28T00:57:13;13.05;;;7.47;;
77055;SDS011;67471;44.918;8.614;2023-02-28T01:00:16;11.82;;;6.63;;
77055;SDS011;67471;44.918;8.614;2023-02-28T01:03:21;10.65;;;6.80;;
77055;SDS011;67471;44.918;8.614;2023-02-28T01:06:26;10.10;;;6.45;;
77055;SDS011;67471;44.918;8.614;2023-02-28T01:09:30;11.55;;;7.15;;
77055;SDS011;67471;44.918;8.614;2023-02-28T01:12:35;12.95;;;6.53;;
77055;SDS011;67471;44.918;8.614;2023-02-28T01:15:46;15.20;;;7.03;;
77055;SDS011;67471;44.918;8.614;2023-02-28T01:18:54;11.02;;;6.25;;
77055;SDS011;67471;44.918;8.614;2023-02-28T01:22:00;11.93;;;6.05;;
77055;SDS011;67471;44.918;8.614;2023-02-28T01:25:07;12.05;;;6.18;;
77055;SDS011;67471;44.918;8.614;2023-02-28T01:28:11;9.82;;;5.90;;
77055;SDS011;67471;44.918;8.614;2023-02-28T01:31:15;11.75;;;6.93;;
77055;SDS011;67471;44.918;8.614;2023-02-28T01:34:19;11.35;;;6.53;;
77055;SDS011;67471;44.918;8.614;2023-02-28T01:37:23;10.80;;;6.38;;
77055;SDS011;67471;44.918;8.614;2023-02-28T01:40:27;13.02;;;6.85;;
77055;SDS011;67471;44.918;8.614;2023-02-28T01:43:32;10.30;;;6.93;;
77055;SDS011;67471;44.918;8.614;2023-02-28T01:46:54;10.88;;;5.97;;
77055;SDS011;67471;44.918;8.614;2023-02-28T01:49:58;11.20;;;6.07;;
77055;SDS011;67471;44.918;8.614;2023-02-28T01:53:09;11.38;;;6.25;;
77055;SDS011;67471;44.918;8.614;2023-02-28T01:56:20;12.10;;;5.63;;
77055;SDS011;67471;44.918;8.614;2023-02-28T01:59:47;10.90;;;5.40;;
77055;SDS011;67471;44.918;8.614;2023-02-28T02:03:06;10.70;;;5.90;;
77055;SDS011;67471;44.918;8.614;2023-02-28T02:06:12;11.57;;;6.00;;
77055;SDS011;67471;44.918;8.614;2023-02-28T02:09:16;9.25;;;5.05;;
77055;SDS011;67471;44.918;8.614;2023-02-28T02:12:24;11.27;;;5.93;;
77055;SDS011;67471;44.918;8.614;2023-02-28T02:15:39;11.85;;;5.93;;
77055;SDS011;67471;44.918;8.614;2023-02-28T02:28:41;12.90;;;5.93;;
77055;SDS011;67471;44.918;8.614;2023-02-28T02:41:46;10.70;;;6.45;;
77055;SDS011;67471;44.918;8.614;2023-02-28T02:44:57;10.73;;;6.00;;
77055;SDS011;67471;44.918;8.614;2023-02-28T02:48:06;10.32;;;6.05;;
77055;SDS011;67471;44.918;8.614;2023-02-28T02:51:16;10.57;;;6.30;;
77055;SDS011;67471;44.918;8.614;2023-02-28T02:54:24;13.68;;;6.65;;
77055;SDS011;67471;44.918;8.614;2023-02-28T02:57:36;11.27;;;6.28;;
77055;SDS011;67471;44.918;8.614;2023-02-28T03:00:49;12.95;;;6.78;;
77055;SDS011;67471;44.918;8.614;2023-02-28T03:03:57;10.30;;;6.43;;
77055;SDS011;67471;44.918;8.614;2023-02-28T03:07:04;11.55;;;6.30;;
77055;SDS011;67471;44.918;8.614;2023-02-28T03:20:34;10.32;;;6.53;;
77055;SDS011;67471;44.918;8.614;2023-02-28T03:24:05;11.50;;;6.47;;
77055;SDS011;67471;44.918;8.614;2023-02-28T03:27:18;9.48;;;5.45;;
77055;SDS011;67471;44.918;8.614;2023-02-28T03:30:54;10.48;;;6.00;;
77055;SDS011;67471;44.918;8.614;2023-02-28T03:34:19;9.07;;;6.22;;
77055;SDS011;67471;44.918;8.614;2023-02-28T03:37:27;10.48;;;5.65;;
77055;SDS011;67471;44.918;8.614;2023-02-28T03:40:33;10.85;;;5.45;;
77055;SDS011;67471;44.918;8.614;2023-02-28T03:43:41;9.48;;;5.28;;
77055;SDS011;67471;44.918;8.614;2023-02-28T03:46:53;9.35;;;5.30;;
77055;SDS011;67471;44.918;8.614;2023-02-28T03:50:14;11.30;;;5.93;;
77055;SDS011;67471;44.918;8.614;2023-02-28T03:53:32;11.75;;;6.32;;
77055;SDS011;67471;44.918;8.614;2023-02-28T03:56:42;14.82;;;5.72;;
77055;SDS011;67471;44.918;8.614;2023-02-28T03:59:56;8.82;;;5.30;;
77055;SDS011;67471;44.918;8.614;2023-02-28T04:03:02;10.20;;;5.47;;
77055;SDS011;67471;44.918;8.614;2023-02-28T04:06:07;11.95;;;5.93;;
77055;SDS011;67471;44.918;8.614;2023-02-28T04:12:20;9.70;;;5.57;;
77055;SDS011;67471;44.918;8.614;2023-02-28T04:15:26;8.80;;;5.30;;
77055;SDS011;67471;44.918;8.614;2023-02-28T04:18:30;8.95;;;5.55;;
77055;SDS011;67471;44.918;8.614;2023-02-28T04:21:35;11.60;;;5.88;;
77055;SDS011;67471;44.918;8.614;2023-02-28T04:24:42;8.32;;;5.38;;
77055;SDS011;67471;44.918;8.614;2023-02-28T04:27:46;10.90;;;6.20;;
77055;SDS011;67471;44.918;8.614;2023-02-28T04:30:54;12.32;;;6.45;;
77055;SDS011;67471;44.918;8.614;2023-02-28T04:34:01;11.70;;;5.90;;
77055;SDS011;67471;44.918;8.614;2023-02-28T04:37:05;9.18;;;5.38;;
77055;SDS011;67471;44.918;8.614;2023-02-28T04:40:09;10.43;;;5.40;;
77055;SDS011;67471;44.918;8.614;2023-02-28T04:43:13;14.68;;;5.97;;
77055;SDS011;67471;44.918;8.614;2023-02-28T04:46:17;10.45;;;5.43;;
77055;SDS011;67471;44.918;8.614;2023-02-28T04:49:21;11.32;;;5.65;;
77055;SDS011;67471;44.918;8.614;2023-02-28T04:52:26;12.13;;;6.80;;
77055;SDS011;67471;44.918;8.614;2023-02-28T04:55:30;10.07;;;5.28;;
77055;SDS011;67471;44.918;8.614;2023-02-28T04:58:34;10.10;;;5.57;;
77055;SDS011;67471;44.918;8.614;2023-02-28T05:01:38;11.60;;;6.15;;
77055;SDS011;67471;44.918;8.614;2023-02-28T05:04:42;11.38;;;6.05;;
77055;SDS011;67471;44.918;8.614;2023-02-28T05:07:46;11.60;;;5.55;;
77055;SDS011;67471;44.918;8.614;2023-02-28T05:10:50;10.40;;;5.60;;
77055;SDS011;67471;44.918;8.614;2023-02-28T05:13:53;11.90;;;5.93;;
77055;SDS011;67471;44.918;8.614;2023-02-28T05:16:57;10.10;;;5.95;;
77055;SDS011;67471;44.918;8.614;2023-02-28T05:20:01;12.00;;;7.35;;
77055;SDS011;67471;44.918;8.614;2023-02-28T05:23:05;12.48;;;6.38;;
77055;SDS011;67471;44.918;8.614;2023-02-28T05:26:08;11.48;;;6.40;;
77055;SDS011;67471;44.918;8.614;2023-02-28T05:29:12;11.05;;;6.13;;
77055;SDS011;67471;44.918;8.614;2023-02-28T05:32:16;13.38;;;6.30;;
77055;SDS011;67471;44.918;8.614;2023-02-28T05:35:20;10.45;;;5.63;;
77055;SDS011;67471;44.918;8.614;2023-02-28T05:38:23;11.65;;;6.68;;
77055;SDS011;67471;44.918;8.614;2023-02-28T05:41:27;11.50;;;6.00;;
77055;SDS011;67471;44.918;8.614;2023-02-28T05:44:31;10.85;;;6.40;;
77055;SDS011;67471;44.918;8.614;2023-02-28T05:47:35;9.70;;;6.75;;
77055;SDS011;67471;44.918;8.614;2023-02-28T05:50:38;10.18;;;6.25;;
77055;SDS011;67471;44.918;8.614;2023-02-28T05:53:42;12.20;;;6.72;;
77055;SDS011;67471;44.918;8.614;2023-02-28T05:56:46;9.80;;;6.40;;
77055;SDS011;67471;44.918;8.614;2023-02-28T05:59:50;14.20;;;7.25;;
77055;SDS011;67471;44.918;8.614;2023-02-28T06:02:54;11.23;;;7.10;;
77055;SDS011;67471;44.918;8.614;2023-02-28T06:05:59;12.30;;;6.63;;
77055;SDS011;67471;44.918;8.614;2023-02-28T06:09:06;13.30;;;6.72;;
77055;SDS011;67471;44.918;8.614;2023-02-28T06:12:10;14.32;;;6.72;;
77055;SDS011;67471;44.918;8.614;2023-02-28T06:15:14;11.18;;;6.93;;
77055;SDS011;67471;44.918;8.614;2023-02-28T06:18:19;10.95;;;6.65;;
77055;SDS011;67471;44.918;8.614;2023-02-28T06:21:23;10.23;;;6.53;;
77055;SDS011;67471;44.918;8.614;2023-02-28T06:24:27;11.98;;;6.93;;
77055;SDS011;67471;44.918;8.614;2023-02-28T06:27:34;12.63;;;6.53;;
77055;SDS011;67471;44.918;8.614;2023-02-28T06:30:38;11.13;;;6.38;;
77055;SDS011;67471;44.918;8.614;2023-02-28T06:33:42;14.25;;;7.15;;
77055;SDS011;67471;44.918;8.614;2023-02-28T06:36:49;13.27;;;6.78;;
77055;SDS011;67471;44.918;8.614;2023-02-28T06:39:54;13.95;;;6.35;;
77055;SDS011;67471;44.918;8.614;2023-02-28T06:42:59;11.90;;;6.95;;
77055;SDS011;67471;44.918;8.614;2023-02-28T06:46:03;12.02;;;7.32;;
77055;SDS011;67471;44.918;8.614;2023-02-28T06:49:09;10.27;;;6.88;;
77055;SDS011;67471;44.918;8.614;2023-02-28T06:52:14;12.48;;;6.90;;
77055;SDS011;67471;44.918;8.614;2023-02-28T06:55:17;11.60;;;6.82;;
77055;SDS011;67471;44.918;8.614;2023-02-28T06:58:21;10.35;;;6.55;;
77055;SDS011;67471;44.918;8.614;2023-02-28T07:01:25;10.02;;;6.32;;
77055;SDS011;67471;44.918;8.614;2023-02-28T07:04:30;11.27;;;7.15;;
77055;SDS011;67471;44.918;8.614;2023-02-28T07:07:34;12.93;;;7.50;;
77055;SDS011;67471;44.918;8.614;2023-02-28T07:10:39;10.38;;;6.22;;
77055;SDS011;67471;44.918;8.614;2023-02-28T07:13:43;10.65;;;6.30;;
77055;SDS011;67471;44.918;8.614;2023-02-28T07:16:46;10.57;;;6.72;;
77055;SDS011;67471;44.918;8.614;2023-02-28T07:19:50;11.15;;;6.72;;
77055;SDS011;67471;44.918;8.614;2023-02-28T07:22:54;11.52;;;6.88;;
77055;SDS011;67471;44.918;8.614;2023-02-28T07:25:59;11.55;;;6.50;;
77055;SDS011;67471;44.918;8.614;2023-02-28T07:29:03;15.40;;;7.28;;
77055;SDS011;67471;44.918;8.614;2023-02-28T07:32:07;15.30;;;7.35;;
77055;SDS011;67471;44.918;8.614;2023-02-28T07:35:11;12.63;;;7.05;;
77055;SDS011;67471;44.918;8.614;2023-02-28T07:38:15;12.65;;;6.70;;
77055;SDS011;67471;44.918;8.614;2023-02-28T07:41:19;12.07;;;6.80;;
77055;SDS011;67471;44.918;8.614;2023-02-28T07:44:26;12.18;;;7.40;;
77055;SDS011;67471;44.918;8.614;2023-02-28T07:47:30;13.27;;;7.07;;
77055;SDS011;67471;44.918;8.614;2023-02-28T07:50:34;10.73;;;6.78;;
77055;SDS011;67471;44.918;8.614;2023-02-28T07:53:39;12.77;;;6.43;;
77055;SDS011;67471;44.918;8.614;2023-02-28T07:56:43;11.02;;;6.80;;
77055;SDS011;67471;44.918;8.614;2023-02-28T07:59:47;10.98;;;6.38;;
77055;SDS011;67471;44.918;8.614;2023-02-28T08:02:51;17.27;;;7.72;;
77055;SDS011;67471;44.918;8.614;2023-02-28T08:05:54;10.40;;;6.10;;
77055;SDS011;67471;44.918;8.614;2023-02-28T08:08:58;13.57;;;6.38;;
77055;SDS011;67471;44.918;8.614;2023-02-28T08:12:02;12.52;;;7.35;;
77055;SDS011;67471;44.918;8.614;2023-02-28T08:15:06;16.92;;;7.00;;
77055;SDS011;67471;44.918;8.614;2023-02-28T08:18:10;11.68;;;6.70;;
77055;SDS011;67471;44.918;8.614;2023-02-28T08:21:14;13.13;;;7.32;;
77055;SDS011;67471;44.918;8.614;2023-02-28T08:24:18;11.77;;;6.38;;
77055;SDS011;67471;44.918;8.614;2023-02-28T08:27:22;13.95;;;6.78;;
77055;SDS011;67471;44.918;8.614;2023-02-28T08:30:26;11.95;;;7.03;;
77055;SDS011;67471;44.918;8.614;2023-02-28T08:33:29;11.10;;;6.97;;
77055;SDS011;67471;44.918;8.614;2023-02-28T08:36:34;11.68;;;7.70;;
77055;SDS011;67471;44.918;8.614;2023-02-28T08:39:38;11.18;;;6.97;;
77055;SDS011;67471;44.918;8.614;2023-02-28T08:42:42;12.77;;;7.15;;
77055;SDS011;67471;44.918;8.614;2023-02-28T08:45:46;13.13;;;7.35;;
77055;SDS011;67471;44.918;8.614;2023-02-28T08:48:53;11.10;;;6.80;;
77055;SDS011;67471;44.918;8.614;2023-02-28T08:51:58;10.93;;;7.23;;
77055;SDS011;67471;44.918;8.614;2023-02-28T08:55:02;16.48;;;7.15;;
77055;SDS011;67471;44.918;8.614;2023-02-28T08:58:06;11.35;;;7.68;;
77055;SDS011;67471;44.918;8.614;2023-02-28T09:01:11;11.65;;;6.97;;
77055;SDS011;67471;44.918;8.614;2023-02-28T09:04:16;13.73;;;7.38;;
77055;SDS011;67471;44.918;8.614;2023-02-28T09:07:20;13.27;;;6.75;;
77055;SDS011;67471;44.918;8.614;2023-02-28T09:10:24;14.18;;;7.32;;
77055;SDS011;67471;44.918;8.614;2023-02-28T09:13:28;12.27;;;7.20;;
77055;SDS011;67471;44.918;8.614;2023-02-28T09:16:33;11.77;;;6.47;;
77055;SDS011;67471;44.918;8.614;2023-02-28T09:19:37;14.77;;;7.85;;
77055;SDS011;67471;44.918;8.614;2023-02-28T09:22:41;10.52;;;6.63;;
77055;SDS011;67471;44.918;8.614;2023-02-28T09:25:48;12.90;;;7.15;;
77055;SDS011;67471;44.918;8.614;2023-02-28T09:28:56;12.07;;;7.53;;
77055;SDS011;67471;44.918;8.614;2023-02-28T09:32:02;11.90;;;6.57;;
77055;SDS011;67471;44.918;8.614;2023-02-28T09:35:06;12.88;;;7.35;;
77055;SDS011;67471;44.918;8.614;2023-02-28T09:38:10;14.65;;;8.77;;
77055;SDS011;67471;44.918;8.614;2023-02-28T09:41:16;14.43;;;8.27;;
77055;SDS011;67471;44.918;8.614;2023-02-28T09:44:24;15.90;;;8.98;;
77055;SDS011;67471;44.918;8.614;2023-02-28T09:47:46;14.63;;;8.27;;
77055;SDS011;67471;44.918;8.614;2023-02-28T09:54:20;15.20;;;8.68;;
77055;SDS011;67471;44.918;8.614;2023-02-28T09:57:36;12.18;;;8.10;;
77055;SDS011;67471;44.918;8.614;2023-02-28T10:00:42;15.00;;;7.70;;
77055;SDS011;67471;44.918;8.614;2023-02-28T10:03:56;13.25;;;8.15;;
77055;SDS011;67471;44.918;8.614;2023-02-28T10:07:11;13.10;;;8.38;;
77055;SDS011;67471;44.918;8.614;2023-02-28T10:13:48;10.55;;;6.93;;
77055;SDS011;67471;44.918;8.614;2023-02-28T10:16:57;14.18;;;8.27;;
77055;SDS011;67471;44.918;8.614;2023-02-28T10:20:07;14.48;;;9.05;;
77055;SDS011;67471;44.918;8.614;2023-02-28T10:23:31;12.18;;;7.75;;
77055;SDS011;67471;44.918;8.614;2023-02-28T10:26:38;13.77;;;7.40;;
77055;SDS011;67471;44.918;8.614;2023-02-28T10:29:43;12.00;;;7.82;;
77055;SDS011;67471;44.918;8.614;2023-02-28T10:32:50;11.80;;;7.15;;
77055;SDS011;67471;44.918;8.614;2023-02-28T10:35:56;13.60;;;7.30;;
77055;SDS011;67471;44.918;8.614;2023-02-28T10:39:00;10.43;;;6.70;;
77055;SDS011;67471;44.918;8.614;2023-02-28T10:42:05;11.80;;;6.93;;
77055;SDS011;67471;44.918;8.614;2023-02-28T10:45:34;11.95;;;7.50;;
77055;SDS011;67471;44.918;8.614;2023-02-28T10:48:41;11.40;;;7.35;;
77055;SDS011;67471;44.918;8.614;2023-02-28T10:51:49;12.57;;;7.35;;
77055;SDS011;67471;44.918;8.614;2023-02-28T10:55:13;11.63;;;7.67;;
77055;SDS011;67471;44.918;8.614;2023-02-28T10:58:40;14.18;;;7.60;;
77055;SDS011;67471;44.918;8.614;2023-02-28T11:01:51;11.05;;;7.25;;
77055;SDS011;67471;44.918;8.614;2023-02-28T11:04:56;11.32;;;6.32;;
77055;SDS011;67471;44.918;8.614;2023-02-28T11:11:18;10.77;;;7.55;;
77055;SDS011;67471;44.918;8.614;2023-02-28T11:14:30;12.13;;;6.80;;
77055;SDS011;67471;44.918;8.614;2023-02-28T11:17:38;11.20;;;6.80;;
77055;SDS011;67471;44.918;8.614;2023-02-28T11:20:42;10.80;;;7.30;;
77055;SDS011;67471;44.918;8.614;2023-02-28T11:23:54;11.52;;;6.80;;
77055;SDS011;67471;44.918;8.614;2023-02-28T11:27:04;12.18;;;7.53;;
77055;SDS011;67471;44.918;8.614;2023-02-28T11:30:28;13.38;;;7.25;;
77055;SDS011;67471;44.918;8.614;2023-02-28T11:33:44;13.68;;;7.65;;
77055;SDS011;67471;44.918;8.614;2023-02-28T11:36:56;11.00;;;7.63;;
77055;SDS011;67471;44.918;8.614;2023-02-28T11:40:02;13.35;;;7.57;;
77055;SDS011;67471;44.918;8.614;2023-02-28T11:49:56;11.90;;;7.10;;
77055;SDS011;67471;44.918;8.614;2023-02-28T11:56:23;14.80;;;8.25;;
77055;SDS011;67471;44.918;8.614;2023-02-28T11:59:35;13.20;;;8.50;;
77055;SDS011;67471;44.918;8.614;2023-02-28T12:03:18;13.00;;;8.07;;
77055;SDS011;67471;44.918;8.614;2023-02-28T12:09:44;13.98;;;8.50;;
77055;SDS011;67471;44.918;8.614;2023-02-28T12:13:12;16.35;;;8.95;;
77055;SDS011;67471;44.918;8.614;2023-02-28T12:23:26;13.23;;;8.13;;
77055;SDS011;67471;44.918;8.614;2023-02-28T12:26:52;15.82;;;8.75;;
77055;SDS011;67471;44.918;8.614;2023-02-28T12:30:05;14.07;;;8.82;;
77055;SDS011;67471;44.918;8.614;2023-02-28T12:33:18;16.63;;;9.02;;
77055;SDS011;67471;44.918;8.614;2023-02-28T12:36:25;15.23;;;8.90;;
77055;SDS011;67471;44.918;8.614;2023-02-28T12:39:33;14.25;;;9.27;;
77055;SDS011;67471;44.918;8.614;2023-02-28T12:42:42;15.32;;;9.43;;
77055;SDS011;67471;44.918;8.614;2023-02-28T12:45:56;14.17;;;8.73;;
77055;SDS011;67471;44.918;8.614;2023-02-28T12:49:06;13.05;;;8.63;;
77055;SDS011;67471;44.918;8.614;2023-02-28T12:52:15;11.82;;;8.88;;
77055;SDS011;67471;44.918;8.614;2023-02-28T12:58:48;15.95;;;8.68;;
77055;SDS011;67471;44.918;8.614;2023-02-28T13:08:59;14.02;;;9.32;;
77055;SDS011;67471;44.918;8.614;2023-02-28T13:12:13;13.57;;;8.93;;
77055;SDS011;67471;44.918;8.614;2023-02-28T13:15:27;13.20;;;9.15;;
77055;SDS011;67471;44.918;8.614;2023-02-28T13:18:33;14.70;;;8.80;;
77055;SDS011;67471;44.918;8.614;2023-02-28T13:21:43;16.60;;;10.35;;
77055;SDS011;67471;44.918;8.614;2023-02-28T13:24:51;14.82;;;9.13;;
77055;SDS011;67471;44.918;8.614;2023-02-28T13:27:56;17.65;;;9.75;;
77055;SDS011;67471;44.918;8.614;2023-02-28T13:31:04;18.35;;;10.13;;
77055;SDS011;67471;44.918;8.614;2023-02-28T13:34:13;17.58;;;9.75;;
77055;SDS011;67471;44.918;8.614;2023-02-28T13:40:34;17.73;;;10.50;;
77055;SDS011;67471;44.918;8.614;2023-02-28T13:53:39;14.40;;;10.38;;
77055;SDS011;67471;44.918;8.614;2023-02-28T13:57:01;19.63;;;10.70;;
77055;SDS011;67471;44.918;8.614;2023-02-28T14:07:03;16.17;;;10.07;;
77055;SDS011;67471;44.918;8.614;2023-02-28T14:10:07;15.32;;;10.45;;
77055;SDS011;67471;44.918;8.614;2023-02-28T14:16:47;18.38;;;10.38;;
77055;SDS011;67471;44.918;8.614;2023-02-28T14:19:53;17.73;;;11.13;;
77055;SDS011;67471;44.918;8.614;2023-02-28T14:23:10;17.13;;;10.68;;
77055;SDS011;67471;44.918;8.614;2023-02-28T14:26:32;18.52;;;11.82;;
77055;SDS011;67471;44.918;8.614;2023-02-28T14:33:42;18.38;;;12.48;;
77055;SDS011;67471;44.918;8.614;2023-02-28T14:36:58;16.10;;;11.77;;
77055;SDS011;67471;44.918;8.614;2023-02-28T14:40:12;20.48;;;12.00;;
77055;SDS011;67471;44.918;8.614;2023-02-28T14:43:23;19.52;;;11.45;;
77055;SDS011;67471;44.918;8.614;2023-02-28T14:46:36;18.98;;;10.82;;
77055;SDS011;67471;44.918;8.614;2023-02-28T14:49:44;18.35;;;11.25;;
77055;SDS011;67471;44.918;8.614;2023-02-28T14:52:53;16.05;;;11.05;;
77055;SDS011;67471;44.918;8.614;2023-02-28T14:55:58;18.23;;;12.27;;
77055;SDS011;67471;44.918;8.614;2023-02-28T14:59:03;21.90;;;14.10;;
77055;SDS011;67471;44.918;8.614;2023-02-28T15:08:33;21.20;;;12.32;;
77055;SDS011;67471;44.918;8.614;2023-02-28T15:11:38;20.23;;;11.80;;
77055;SDS011;67471;44.918;8.614;2023-02-28T15:14:43;18.50;;;10.88;;
77055;SDS011;67471;44.918;8.614;2023-02-28T15:17:52;18.02;;;10.77;;
77055;SDS011;67471;44.918;8.614;2023-02-28T15:21:02;19.88;;;12.25;;
77055;SDS011;67471;44.918;8.614;2023-02-28T15:24:25;16.73;;;10.45;;
77055;SDS011;67471;44.918;8.614;2023-02-28T15:27:44;22.63;;;10.25;;
77055;SDS011;67471;44.918;8.614;2023-02-28T15:30:51;15.88;;;9.57;;
77055;SDS011;67471;44.918;8.614;2023-02-28T15:34:05;15.73;;;11.23;;
77055;SDS011;67471;44.918;8.614;2023-02-28T15:40:36;18.15;;;10.30;;
77055;SDS011;67471;44.918;8.614;2023-02-28T15:47:30;19.13;;;10.35;;
77055;SDS011;67471;44.918;8.614;2023-02-28T15:50:34;17.13;;;9.95;;
77055;SDS011;67471;44.918;8.614;2023-02-28T15:53:45;22.15;;;10.32;;
77055;SDS011;67471;44.918;8.614;2023-02-28T15:57:05;16.83;;;10.60;;
77055;SDS011;67471;44.918;8.614;2023-02-28T16:00:17;18.23;;;10.33;;
77055;SDS011;67471;44.918;8.614;2023-02-28T16:03:32;17.63;;;10.10;;
77055;SDS011;67471;44.918;8.614;2023-02-28T16:06:43;17.95;;;10.52;;
77055;SDS011;67471;44.918;8.614;2023-02-28T16:09:48;17.50;;;9.50;;
77055;SDS011;67471;44.918;8.614;2023-02-28T16:12:52;21.30;;;11.90;;
77055;SDS011;67471;44.918;8.614;2023-02-28T16:16:01;22.20;;;10.25;;
77055;SDS011;67471;44.918;8.614;2023-02-28T16:19:05;16.00;;;10.20;;
77055;SDS011;67471;44.918;8.614;2023-02-28T16:22:11;19.33;;;9.93;;
77055;SDS011;67471;44.918;8.614;2023-02-28T16:25:15;15.50;;;10.13;;
77055;SDS011;67471;44.918;8.614;2023-02-28T16:28:25;22.45;;;9.93;;
77055;SDS011;67471;44.918;8.614;2023-02-28T16:31:37;17.58;;;10.65;;
77055;SDS011;67471;44.918;8.614;2023-02-28T16:34:42;17.25;;;10.20;;
77055;SDS011;67471;44.918;8.614;2023-02-28T16:37:53;18.13;;;10.30;;
77055;SDS011;67471;44.918;8.614;2023-02-28T16:40:59;19.63;;;10.05;;
77055;SDS011;67471;44.918;8.614;2023-02-28T16:44:03;19.70;;;9.80;;
77055;SDS011;67471;44.918;8.614;2023-02-28T16:47:13;20.35;;;10.90;;
77055;SDS011;67471;44.918;8.614;2023-02-28T16:50:20;18.40;;;9.82;;
77055;SDS011;67471;44.918;8.614;2023-02-28T16:53:25;19.67;;;10.07;;
77055;SDS011;67471;44.918;8.614;2023-02-28T16:56:29;15.20;;;9.73;;
77055;SDS011;67471;44.918;8.614;2023-02-28T16:59:33;17.33;;;9.00;;
77055;SDS011;67471;44.918;8.614;2023-02-28T17:02:37;17.92;;;9.82;;
77055;SDS011;67471;44.918;8.614;2023-02-28T17:05:41;18.10;;;10.40;;
77055;SDS011;67471;44.918;8.614;2023-02-28T17:08:45;17.23;;;10.13;;
77055;SDS011;67471;44.918;8.614;2023-02-28T17:11:49;22.98;;;10.65;;
77055;SDS011;67471;44.918;8.614;2023-02-28T17:14:53;16.67;;;9.70;;
77055;SDS011;67471;44.918;8.614;2023-02-28T17:17:57;97.45;;;44.35;;
77055;SDS011;67471;44.918;8.614;2023-02-28T17:21:01;71.13;;;39.05;;
77055;SDS011;67471;44.918;8.614;2023-02-28T17:24:04;41.70;;;24.83;;
77055;SDS011;67471;44.918;8.614;2023-02-28T17:27:10;31.63;;;18.38;;
77055;SDS011;67471;44.918;8.614;2023-02-28T17:30:16;25.75;;;13.50;;
77055;SDS011;67471;44.918;8.614;2023-02-28T17:33:22;22.70;;;12.63;;
77055;SDS011;67471;44.918;8.614;2023-02-28T17:36:26;22.67;;;12.18;;
77055;SDS011;67471;44.918;8.614;2023-02-28T17:39:30;20.10;;;11.98;;
77055;SDS011;67471;44.918;8.614;2023-02-28T17:42:34;26.13;;;16.50;;
77055;SDS011;67471;44.918;8.614;2023-02-28T17:45:38;22.80;;;14.18;;
77055;SDS011;67471;44.918;8.614;2023-02-28T17:48:42;25.67;;;13.73;;
77055;SDS011;67471;44.918;8.614;2023-02-28T17:51:46;22.80;;;11.40;;
77055;SDS011;67471;44.918;8.614;2023-02-28T17:54:52;18.73;;;11.90;;
77055;SDS011;67471;44.918;8.614;2023-02-28T17:57:56;25.35;;;13.38;;
77055;SDS011;67471;44.918;8.614;2023-02-28T18:01:00;25.92;;;14.57;;
77055;SDS011;67471;44.918;8.614;2023-02-28T18:04:04;26.58;;;16.02;;
77055;SDS011;67471;44.918;8.614;2023-02-28T18:07:09;19.65;;;12.57;;
77055;SDS011;67471;44.918;8.614;2023-02-28T18:10:16;24.05;;;12.18;;
77055;SDS011;67471;44.918;8.614;2023-02-28T18:13:22;21.05;;;11.63;;
77055;SDS011;67471;44.918;8.614;2023-02-28T18:16:26;23.98;;;14.10;;
77055;SDS011;67471;44.918;8.614;2023-02-28T18:19:31;22.05;;;12.93;;
77055;SDS011;67471;44.918;8.614;2023-02-28T18:22:35;20.98;;;12.25;;
77055;SDS011;67471;44.918;8.614;2023-02-28T18:25:39;21.10;;;11.45;;
77055;SDS011;67471;44.918;8.614;2023-02-28T18:28:44;20.17;;;11.98;;
77055;SDS011;67471;44.918;8.614;2023-02-28T18:31:49;24.25;;;14.45;;
77055;SDS011;67471;44.918;8.614;2023-02-28T18:34:53;21.98;;;13.75;;
77055;SDS011;67471;44.918;8.614;2023-02-28T18:37:57;23.90;;;13.32;;
77055;SDS011;67471;44.918;8.614;2023-02-28T18:41:02;20.88;;;11.77;;
77055;SDS011;67471;44.918;8.614;2023-02-28T18:44:08;20.50;;;11.80;;
77055;SDS011;67471;44.918;8.614;2023-02-28T18:47:13;20.10;;;12.48;;
77055;SDS011;67471;44.918;8.614;2023-02-28T18:50:17;22.27;;;12.52;;
77055;SDS011;67471;44.918;8.614;2023-02-28T18:53:20;23.23;;;12.48;;
77055;SDS011;67471;44.918;8.614;2023-02-28T18:56:25;22.42;;;12.20;;
77055;SDS011;67471;44.918;8.614;2023-02-28T18:59:29;22.60;;;11.45;;
77055;SDS011;67471;44.918;8.614;2023-02-28T19:02:35;21.13;;;12.60;;
77055;SDS011;67471;44.918;8.614;2023-02-28T19:05:39;23.00;;;12.52;;
77055;SDS011;67471;44.918;8.614;2023-02-28T19:08:43;22.13;;;13.30;;
77055;SDS011;67471;44.918;8.614;2023-02-28T19:11:47;25.52;;;13.38;;
77055;SDS011;67471;44.918;8.614;2023-02-28T19:14:51;25.02;;;15.05;;
77055;SDS011;67471;44.918;8.614;2023-02-28T19:17:55;22.88;;;12.82;;
77055;SDS011;67471;44.918;8.614;2023-02-28T19:20:58;23.27;;;13.15;;
77055;SDS011;67471;44.918;8.614;2023-02-28T19:24:02;22.08;;;13.13;;
77055;SDS011;67471;44.918;8.614;2023-02-28T19:27:06;24.30;;;13.05;;
77055;SDS011;67471;44.918;8.614;2023-02-28T19:30:10;26.25;;;14.35;;
77055;SDS011;67471;44.918;8.614;2023-02-28T19:33:15;24.08;;;13.43;;
77055;SDS011;67471;44.918;8.614;2023-02-28T19:36:19;25.05;;;12.85;;
77055;SDS011;67471;44.918;8.614;2023-02-28T19:39:24;26.15;;;14.02;;
77055;SDS011;67471;44.918;8.614;2023-02-28T19:42:28;25.27;;;14.82;;
77055;SDS011;67471;44.918;8.614;2023-02-28T19:45:36;25.55;;;14.60;;
77055;SDS011;67471;44.918;8.614;2023-02-28T19:48:40;23.85;;;13.30;;
77055;SDS011;67471;44.918;8.614;2023-02-28T19:51:47;23.25;;;14.07;;
77055;SDS011;67471;44.918;8.614;2023-02-28T19:54:50;28.42;;;14.73;;
77055;SDS011;67471;44.918;8.614;2023-02-28T19:57:54;22.73;;;12.75;;
77055;SDS011;67471;44.918;8.614;2023-02-28T20:00:58;27.48;;;14.60;;
77055;SDS011;67471;44.918;8.614;2023-02-28T20:04:09;25.45;;;14.02;;
77055;SDS011;67471;44.918;8.614;2023-02-28T20:07:15;24.83;;;12.88;;
77055;SDS011;67471;44.918;8.614;2023-02-28T20:10:20;22.52;;;13.77;;
77055;SDS011;67471;44.918;8.614;2023-02-28T20:13:24;20.38;;;13.52;;
77055;SDS011;67471;44.918;8.614;2023-02-28T20:16:28;24.98;;;13.48;;
77055;SDS011;67471;44.918;8.614;2023-02-28T20:19:33;25.23;;;14.23;;
77055;SDS011;67471;44.918;8.614;2023-02-28T20:22:37;26.58;;;15.68;;